Time;durP1;ratioP1;P1;durP2;ratioP2;P2;SDS_P1;SDS_P2;PMS_P1;PMS_P2;Temp;Humidity;BMP_temperature;BMP_pressure;BME280_temperature;BME280_humidity;BME280_pressure;Samples;Min_cycle;Max_cycle;Signal;HPM_P1;HPM_P2
2022/03/09 00:00:39;;;;;;;11.50;4.32;;;;;;;-1.37;57.04;99366.50;5028981;28;20021;-69
2022/03/09 00:03:04;;;;;;;10.65;4.55;;;;;;;-1.37;57.95;99379.78;5015772;28;20029;-70
2022/03/09 00:05:30;;;;;;;14.20;5.15;;;;;;;-1.48;58.95;99393.84;5031499;28;20120;-70
2022/03/09 00:07:55;;;;;;;12.55;5.43;;;;;;;-1.62;59.50;99391.34;5032219;28;20029;-69
2022/03/09 00:10:20;;;;;;;12.40;6.40;;;;;;;-1.84;59.94;99397.34;5029511;28;20032;-69
2022/03/09 00:12:46;;;;;;;17.02;5.72;;;;;;;-2.02;60.29;99367.69;5032465;28;20478;-69
2022/03/09 00:15:11;;;;;;;14.15;6.13;;;;;;;-2.10;60.88;99388.59;5030556;28;20030;-69
2022/03/09 00:17:37;;;;;;;12.10;5.40;;;;;;;-2.28;60.69;99374.84;5030407;28;20072;-69
2022/03/09 00:20:03;;;;;;;10.60;4.70;;;;;;;-2.25;61.46;99399.34;5031289;28;20078;-69
2022/03/09 00:22:29;;;;;;;11.90;5.35;;;;;;;-2.40;61.33;99365.97;5023254;28;20059;-69
2022/03/09 00:24:54;;;;;;;13.23;5.35;;;;;;;-2.24;61.36;99386.94;5026088;28;20033;-69
2022/03/09 00:27:19;;;;;;;13.07;5.38;;;;;;;-2.45;60.93;99353.03;5031171;28;20037;-69
2022/03/09 00:29:45;;;;;;;12.98;4.88;;;;;;;-2.09;60.43;99351.38;5031661;28;20056;-69
2022/03/09 00:32:11;;;;;;;12.88;5.05;;;;;;;-1.66;59.94;99393.38;5032302;28;20033;-69
2022/03/09 00:34:37;;;;;;;12.45;5.88;;;;;;;-1.91;61.26;99374.88;5029615;28;20462;-69
2022/03/09 00:37:03;;;;;;;14.00;6.07;;;;;;;-1.94;62.73;99407.75;5028407;28;20034;-69
2022/03/09 00:39:28;;;;;;;13.00;6.70;;;;;;;-2.07;63.13;99413.09;5006297;28;20131;-69
2022/03/09 00:41:53;;;;;;;14.48;6.18;;;;;;;-2.09;62.82;99411.53;5032353;28;20038;-69
2022/03/09 00:44:19;;;;;;;13.45;6.10;;;;;;;-2.28;63.16;99419.88;5031506;28;20029;-69
2022/03/09 00:46:44;;;;;;;15.13;6.72;;;;;;;-2.60;64.02;99393.81;5030821;28;20033;-69
2022/03/09 00:49:09;;;;;;;12.45;6.45;;;;;;;-2.57;64.18;99425.41;5031642;28;20071;-69
2022/03/09 00:51:35;;;;;;;14.13;6.63;;;;;;;-2.79;64.58;99404.00;5032579;28;20085;-70
2022/03/09 00:54:00;;;;;;;13.82;6.57;;;;;;;-2.66;65.29;99416.28;5027119;28;20084;-69
2022/03/09 00:56:25;;;;;;;17.48;6.45;;;;;;;-2.71;65.51;99415.75;4997952;28;21227;-68
2022/03/09 00:58:51;;;;;;;14.40;6.30;;;;;;;-2.77;65.93;99415.34;5000609;28;20029;-69
2022/03/09 01:01:16;;;;;;;17.33;5.47;;;;;;;-2.87;66.61;99392.13;5015115;28;20044;-69
2022/03/09 01:03:42;;;;;;;11.60;5.22;;;;;;;-2.69;66.92;99407.72;5022303;28;20029;-69
2022/03/09 01:06:07;;;;;;;10.35;5.28;;;;;;;-2.72;67.06;99410.56;5028299;28;20036;-69
2022/03/09 01:08:33;;;;;;;10.48;5.28;;;;;;;-2.79;67.31;99394.25;5019817;28;20053;-69
2022/03/09 01:10:58;;;;;;;13.48;5.68;;;;;;;-2.68;67.41;99414.69;5029491;28;20116;-68
2022/03/09 01:13:23;;;;;;;9.75;5.10;;;;;;;-2.69;67.54;99410.38;5031833;28;20034;-69
2022/03/09 01:15:49;;;;;;;18.13;6.05;;;;;;;-2.63;67.10;99403.78;5031146;28;20034;-70
2022/03/09 01:18:15;;;;;;;12.10;5.65;;;;;;;-2.68;67.13;99374.97;5027993;28;20033;-68
2022/03/09 01:20:40;;;;;;;15.73;5.88;;;;;;;-2.78;66.55;99358.00;5030441;28;20048;-69
2022/03/09 01:23:06;;;;;;;17.05;6.30;;;;;;;-2.61;66.64;99394.78;5031475;28;20090;-69
2022/03/09 01:25:32;;;;;;;14.90;6.03;;;;;;;-2.71;67.07;99388.44;5030863;28;20037;-69
2022/03/09 01:27:57;;;;;;;9.85;5.13;;;;;;;-2.68;67.01;99382.91;5025771;28;20437;-69
2022/03/09 01:30:23;;;;;;;13.68;4.35;;;;;;;-2.76;66.60;99380.78;5032477;28;20044;-69
2022/03/09 01:32:48;;;;;;;10.13;4.70;;;;;;;-2.77;66.48;99380.91;5024893;28;20039;-69
2022/03/09 01:35:14;;;;;;;10.80;4.72;;;;;;;-2.67;66.00;99376.69;5035035;28;20119;-69
2022/03/09 01:37:39;;;;;;;8.75;4.00;;;;;;;-2.74;65.64;99354.22;5032208;28;20036;-69
2022/03/09 01:40:05;;;;;;;8.13;4.03;;;;;;;-2.82;65.01;99335.34;5024287;28;20049;-69
2022/03/09 01:42:30;;;;;;;9.60;4.18;;;;;;;-2.61;65.17;99370.09;5035272;28;20389;-69
2022/03/09 01:45:04;;;;;;;10.55;5.00;;;;;;;-2.68;64.97;99374.97;5035044;28;20429;-69
2022/03/09 01:47:30;;;;;;;11.20;5.57;;;;;;;-3.08;66.29;99364.44;5033593;28;20447;-69
2022/03/09 01:49:55;;;;;;;17.35;4.60;;;;;;;-3.46;67.67;99357.25;5034701;28;20104;-68
2022/03/09 01:52:20;;;;;;;14.68;5.88;;;;;;;-3.61;69.02;99384.72;5034401;28;20393;-68
2022/03/09 01:54:46;;;;;;;14.95;6.03;;;;;;;-3.56;69.77;99393.22;5034583;28;20028;-71
2022/03/09 01:57:12;;;;;;;11.13;5.07;;;;;;;-3.52;69.36;99397.34;5014427;28;20508;-69
2022/03/09 01:59:37;;;;;;;10.90;5.28;;;;;;;-3.64;68.90;99369.03;5016421;28;20116;-69
2022/03/09 02:02:03;;;;;;;13.32;4.78;;;;;;;-3.67;68.44;99367.44;5020374;28;20112;-68
2022/03/09 02:04:28;;;;;;;11.38;4.57;;;;;;;-3.55;68.77;99390.44;5057202;28;20089;-68
2022/03/09 02:06:54;;;;;;;11.80;4.78;;;;;;;-3.53;68.89;99387.72;5057021;28;20041;-70
2022/03/09 02:12:03;;;;;;;10.27;4.40;;;;;;;-3.22;68.06;99385.69;5056963;28;20024;-68
2022/03/09 02:14:36;;;;;;;11.18;5.50;;;;;;;-3.16;67.79;99380.00;5047721;28;20025;-68
2022/03/09 02:17:10;;;;;;;11.48;4.97;;;;;;;-3.35;68.57;99375.09;5045953;28;20037;-67
2022/03/09 02:19:36;;;;;;;14.00;5.45;;;;;;;-3.47;68.67;99382.00;5031205;28;20043;-69
2022/03/09 02:22:06;;;;;;;10.85;5.10;;;;;;;-3.63;69.90;99384.81;5028398;28;20057;-68
2022/03/09 02:24:33;;;;;;;11.63;4.75;;;;;;;-3.42;69.48;99387.84;5034626;28;20035;-69
2022/03/09 02:26:58;;;;;;;12.10;5.32;;;;;;;-3.37;68.76;99364.59;5034587;28;20168;-68
2022/03/09 02:29:24;;;;;;;11.98;5.45;;;;;;;-3.20;68.44;99373.19;5033772;28;20037;-68
2022/03/09 02:31:49;;;;;;;14.45;5.07;;;;;;;-3.23;68.30;99363.66;5033102;28;20025;-68
2022/03/09 02:34:14;;;;;;;15.25;5.88;;;;;;;-3.23;68.93;99384.84;5033853;28;20029;-68
2022/03/09 02:36:40;;;;;;;12.38;5.03;;;;;;;-3.22;68.84;99375.97;5028295;28;20033;-68
2022/03/09 02:39:05;;;;;;;11.30;6.15;;;;;;;-3.38;68.42;99354.97;5033894;28;20037;-68
2022/03/09 02:41:33;;;;;;;11.02;5.72;;;;;;;-3.34;69.31;99374.97;5031769;28;20025;-68
2022/03/09 02:44:02;;;;;;;12.47;5.77;;;;;;;-3.37;69.15;99376.97;5023842;28;20029;-69
2022/03/09 02:46:27;;;;;;;9.15;4.78;;;;;;;-3.68;69.46;99368.38;5034444;28;20268;-67
2022/03/09 02:48:53;;;;;;;11.80;6.18;;;;;;;-3.73;70.55;99367.00;5032694;28;20051;-68
2022/03/09 02:51:18;;;;;;;12.45;6.70;;;;;;;-3.68;70.96;99354.31;5031658;28;20485;-69
2022/03/09 02:53:44;;;;;;;16.17;7.22;;;;;;;-3.86;70.86;99344.00;5017363;28;20025;-68
2022/03/09 02:56:09;;;;;;;11.63;5.75;;;;;;;-3.71;71.18;99371.25;5029200;28;20037;-69
2022/03/09 02:58:34;;;;;;;12.63;5.88;;;;;;;-3.42;70.83;99369.34;5033442;28;20084;-68
2022/03/09 03:01:00;;;;;;;12.38;5.53;;;;;;;-3.50;70.51;99365.50;5027885;28;20025;-69
2022/03/09 03:03:25;;;;;;;15.10;5.60;;;;;;;-3.51;70.72;99377.88;5024180;28;20021;-69
2022/03/09 03:05:50;;;;;;;12.10;5.13;;;;;;;-3.80;69.73;99361.25;5027809;28;20116;-68
2022/03/09 03:08:16;;;;;;;13.82;5.65;;;;;;;-4.16;70.71;99362.66;5032333;28;20021;-67
2022/03/09 03:10:42;;;;;;;11.27;5.40;;;;;;;-4.32;71.58;99365.41;5030630;28;20487;-68
2022/03/09 03:13:07;;;;;;;14.07;5.65;;;;;;;-4.39;73.13;99366.72;5016987;28;20392;-68
2022/03/09 03:15:32;;;;;;;13.50;6.10;;;;;;;-4.40;73.18;99343.91;5033136;28;20067;-68
2022/03/09 03:17:58;;;;;;;11.55;5.25;;;;;;;-4.33;73.52;99374.25;5032246;28;20108;-68
2022/03/09 03:20:23;;;;;;;10.60;5.43;;;;;;;-4.33;73.68;99376.91;5032092;28;20469;-68
2022/03/09 03:22:48;;;;;;;11.23;5.00;;;;;;;-4.24;73.33;99375.50;5032738;28;20412;-68
2022/03/09 03:25:14;;;;;;;12.85;6.15;;;;;;;-4.24;73.76;99371.06;5027701;28;20112;-68
2022/03/09 03:27:39;;;;;;;10.65;5.00;;;;;;;-4.39;73.08;99348.25;5031507;28;20025;-68
2022/03/09 03:30:05;;;;;;;13.20;5.35;;;;;;;-4.35;73.55;99373.50;5032812;28;20048;-68
2022/03/09 03:32:30;;;;;;;13.82;5.05;;;;;;;-4.56;73.98;99357.19;5033321;28;20113;-69
2022/03/09 03:34:56;;;;;;;10.55;5.07;;;;;;;-4.49;74.12;99376.16;5032932;28;20030;-69
2022/03/09 03:37:21;;;;;;;14.43;5.68;;;;;;;-4.76;75.29;99344.38;5031125;28;20029;-69
2022/03/09 03:39:46;;;;;;;10.95;4.72;;;;;;;-4.51;74.98;99378.88;5011849;28;20021;-70
2022/03/09 03:42:12;;;;;;;11.77;5.75;;;;;;;-4.55;74.82;99382.69;5032314;28;20033;-70
2022/03/09 03:44:37;;;;;;;15.57;5.25;;;;;;;-4.69;75.18;99362.41;5033398;28;20029;-69
2022/03/09 03:47:03;;;;;;;10.45;4.93;;;;;;;-4.74;75.15;99367.13;5025353;28;20515;-69
2022/03/09 03:49:28;;;;;;;15.60;5.50;;;;;;;-4.77;76.60;99375.19;5019234;28;20108;-70
2022/03/09 03:51:53;;;;;;;12.05;5.47;;;;;;;-4.68;76.39;99393.13;5023222;28;20025;-69
2022/03/09 03:54:19;;;;;;;11.60;5.53;;;;;;;-4.56;76.68;99396.78;5024270;28;20033;-68
2022/03/09 03:56:46;;;;;;;13.40;6.25;;;;;;;-4.43;75.33;99394.25;5027411;28;20026;-70
2022/03/09 03:59:12;;;;;;;15.73;6.32;;;;;;;-4.69;75.73;99375.59;5032652;28;20017;-69
2022/03/09 04:01:37;;;;;;;10.68;5.35;;;;;;;-5.00;76.19;99336.13;5025571;28;20021;-71
2022/03/09 04:04:02;;;;;;;10.93;5.07;;;;;;;-4.98;76.06;99358.00;5032302;28;20036;-68
2022/03/09 04:06:29;;;;;;;13.52;5.70;;;;;;;-4.67;75.54;99344.66;5028074;28;20117;-69
2022/03/09 04:08:54;;;;;;;13.98;6.50;;;;;;;-4.23;75.24;99399.16;5031503;28;20036;-68
2022/03/09 04:11:20;;;;;;;11.68;5.38;;;;;;;-4.15;75.08;99396.06;5024928;28;20026;-67
2022/03/09 04:13:45;;;;;;;13.80;6.25;;;;;;;-4.32;74.87;99401.53;5030991;28;20029;-69
2022/03/09 04:16:11;;;;;;;13.27;5.93;;;;;;;-4.47;75.63;99400.69;5032945;28;20030;-68
2022/03/09 04:18:36;;;;;;;12.05;6.63;;;;;;;-4.53;75.57;99401.03;5032283;28;20021;-68
2022/03/09 04:21:02;;;;;;;14.25;6.47;;;;;;;-4.59;76.25;99404.06;5061084;22;20034;-72
2022/03/09 04:23:27;;;;;;;15.50;6.95;;;;;;;-4.57;76.75;99410.13;5031741;28;20048;-72
2022/03/09 04:25:52;;;;;;;14.75;5.82;;;;;;;-4.58;76.51;99396.06;5032234;28;20354;-72
2022/03/09 04:28:18;;;;;;;14.45;6.82;;;;;;;-4.52;76.21;99402.75;5031609;28;20037;-71
2022/03/09 04:30:44;;;;;;;15.95;6.28;;;;;;;-4.62;76.44;99400.66;5032396;28;20040;-72
2022/03/09 04:33:10;;;;;;;12.48;5.68;;;;;;;-4.60;76.86;99403.22;5027453;28;20161;-72
2022/03/09 04:35:35;;;;;;;17.70;6.43;;;;;;;-4.72;77.29;99390.75;5027518;28;20105;-72
2022/03/09 04:38:00;;;;;;;16.27;6.82;;;;;;;-4.76;77.10;99390.09;5027610;28;20453;-72
2022/03/09 04:40:27;;;;;;;17.77;6.28;;;;;;;-4.65;77.37;99395.56;5034973;28;20092;-72
2022/03/09 04:42:52;;;;;;;14.48;6.25;;;;;;;-4.74;77.89;99398.78;5031212;28;20043;-72
2022/03/09 04:45:17;;;;;;;14.63;6.72;;;;;;;-4.79;78.34;99400.84;5027085;28;20105;-71
2022/03/09 04:47:43;;;;;;;13.65;6.30;;;;;;;-4.97;77.84;99370.28;5021598;28;20057;-72
2022/03/09 04:50:08;;;;;;;13.82;6.53;;;;;;;-4.90;78.45;99395.34;5025563;28;20075;-72
2022/03/09 04:52:34;;;;;;;14.70;6.38;;;;;;;-4.88;79.12;99396.94;5032971;28;20068;-72
2022/03/09 04:54:59;;;;;;;17.48;7.55;;;;;;;-4.91;79.48;99396.28;5028255;28;20022;-73
2022/03/09 04:57:24;;;;;;;14.73;7.40;;;;;;;-4.92;79.63;99399.88;5022072;28;20042;-69
2022/03/09 04:59:49;;;;;;;16.85;6.97;;;;;;;-4.85;79.69;99411.75;5026606;28;20116;-77
2022/03/09 05:02:15;;;;;;;15.15;6.78;;;;;;;-4.90;79.31;99406.78;5029738;28;20167;-75
2022/03/09 05:04:40;;;;;;;15.88;7.25;;;;;;;-4.96;79.23;99408.91;5034833;28;20421;-76
2022/03/09 05:07:05;;;;;;;17.40;6.93;;;;;;;-5.04;79.62;99403.25;5034279;28;20091;-75
2022/03/09 05:09:32;;;;;;;15.40;7.10;;;;;;;-4.96;80.02;99396.56;5025101;28;20065;-73
2022/03/09 05:11:57;;;;;;;15.43;6.57;;;;;;;-4.85;79.46;99404.72;5033392;28;20439;-77
2022/03/09 05:14:22;;;;;;;18.45;6.95;;;;;;;-4.87;78.99;99418.94;5015897;28;20022;-75
2022/03/09 05:16:47;;;;;;;18.88;7.13;;;;;;;-4.99;79.12;99403.81;5029453;28;20033;-75
2022/03/09 05:19:13;;;;;;;14.13;6.30;;;;;;;-5.11;79.07;99419.44;5033072;28;20061;-75
2022/03/09 05:21:39;;;;;;;14.15;7.30;;;;;;;-5.10;80.00;99429.03;5035114;28;20029;-75
2022/03/09 05:24:04;;;;;;;13.38;6.10;;;;;;;-5.19;79.29;99419.00;5034144;28;20047;-74
2022/03/09 05:26:30;;;;;;;17.08;6.35;;;;;;;-5.21;78.56;99415.63;5023629;28;20486;-74
2022/03/09 05:28:57;;;;;;;16.63;6.82;;;;;;;-5.20;78.87;99417.31;5025533;28;20036;-77
2022/03/09 05:31:22;;;;;;;14.48;6.50;;;;;;;-5.28;78.69;99398.44;5034868;28;20029;-79
2022/03/09 05:33:48;;;;;;;19.30;7.57;;;;;;;-5.33;79.36;99389.97;5031921;28;20432;-75
2022/03/09 05:36:14;;;;;;;18.20;7.93;;;;;;;-5.28;80.30;99416.91;5033342;28;20056;-75
2022/03/09 05:38:40;;;;;;;19.17;7.68;;;;;;;-5.25;80.35;99435.19;5025572;28;20029;-71
2022/03/09 05:41:05;;;;;;;20.20;7.07;;;;;;;-5.29;80.86;99433.69;5034532;28;20040;-73
2022/03/09 05:43:31;;;;;;;18.60;7.28;;;;;;;-5.33;81.22;99432.16;5035526;28;20029;-73
2022/03/09 05:45:56;;;;;;;15.32;6.78;;;;;;;-5.36;81.43;99424.41;5032749;28;20025;-74
2022/03/09 05:48:22;;;;;;;15.05;6.72;;;;;;;-5.17;81.10;99440.88;5029925;28;20031;-78
2022/03/09 05:50:47;;;;;;;16.60;7.13;;;;;;;-5.09;80.95;99432.53;5026084;28;20033;-74
2022/03/09 05:53:12;;;;;;;17.73;8.18;;;;;;;-5.11;80.28;99416.78;5030382;28;20040;-76
2022/03/09 05:55:38;;;;;;;15.27;6.55;;;;;;;-4.86;80.00;99457.56;5034936;28;20036;-73
2022/03/09 05:58:04;;;;;;;16.30;6.60;;;;;;;-5.10;78.86;99438.75;5029133;28;20378;-79
2022/03/09 06:00:30;;;;;;;16.90;6.35;;;;;;;-5.16;77.92;99447.00;5026247;28;20028;-79
2022/03/09 06:02:55;;;;;;;14.43;6.32;;;;;;;-5.13;78.14;99457.41;5030373;28;20026;-80
2022/03/09 06:05:20;;;;;;;14.80;6.88;;;;;;;-5.16;78.40;99460.19;5049111;28;20029;-78
2022/03/09 06:07:46;;;;;;;14.60;7.00;;;;;;;-5.13;79.24;99458.25;5024552;28;20156;-79
2022/03/09 06:10:11;;;;;;;16.58;6.07;;;;;;;-5.24;79.04;99415.81;5025048;28;20056;-78
2022/03/09 06:12:37;;;;;;;31.55;13.95;;;;;;;-4.94;78.83;99450.09;5027656;28;20026;-78
2022/03/09 06:15:02;;;;;;;23.17;11.40;;;;;;;-4.69;78.37;99428.41;5025427;28;20077;-78
2022/03/09 06:17:28;;;;;;;26.17;11.20;;;;;;;-3.02;73.01;99414.31;5027798;28;20452;-74
2022/03/09 06:19:53;;;;;;;18.42;8.02;;;;;;;-0.55;62.86;99443.56;5022734;28;20463;-75
2022/03/09 06:22:18;;;;;;;12.65;6.63;;;;;;;1.47;55.91;99451.28;5026055;28;20460;-75
2022/03/09 06:24:43;;;;;;;14.90;6.15;;;;;;;2.33;52.18;99443.91;5035013;28;20093;-74
2022/03/09 06:27:09;;;;;;;13.27;5.88;;;;;;;2.62;50.60;99456.50;5029934;28;20041;-74
2022/03/09 06:29:34;;;;;;;12.75;5.85;;;;;;;3.28;48.04;99446.03;5031370;28;20033;-75
2022/03/09 06:32:00;;;;;;;11.23;5.75;;;;;;;4.15;46.24;99433.47;5033319;28;20045;-75
2022/03/09 06:34:27;;;;;;;9.63;5.00;;;;;;;5.04;44.62;99462.31;5031512;28;20025;-76
2022/03/09 06:36:52;;;;;;;11.43;5.82;;;;;;;5.40;42.98;99430.16;5030214;28;20025;-77
2022/03/09 06:39:17;;;;;;;11.90;6.25;;;;;;;5.60;41.64;99445.03;5028485;28;20385;-76
2022/03/09 06:41:44;;;;;;;11.40;6.00;;;;;;;6.85;40.85;99454.50;5026415;28;20083;-76
2022/03/09 06:44:12;;;;;;;17.27;6.13;;;;;;;7.58;39.92;99461.88;5027410;28;20029;-76
2022/03/09 06:46:37;;;;;;;20.20;10.05;;;;;;;7.52;38.34;99440.13;5030147;28;20025;-75
2022/03/09 06:49:03;;;;;;;18.52;8.85;;;;;;;7.89;38.35;99445.84;5027302;28;20036;-77
2022/03/09 06:51:28;;;;;;;14.98;7.18;;;;;;;7.29;38.47;99434.59;5038611;28;20029;-74
2022/03/09 06:53:53;;;;;;;11.13;6.28;;;;;;;7.77;37.01;99451.75;5033516;28;20108;-75
2022/03/09 06:56:19;;;;;;;15.00;6.60;;;;;;;7.97;37.40;99457.66;5033896;28;20091;-74
2022/03/09 06:58:45;;;;;;;11.20;6.65;;;;;;;9.07;36.40;99463.19;5023867;28;20037;-72
2022/03/09 07:01:11;;;;;;;13.15;6.68;;;;;;;8.99;35.62;99462.22;5039961;28;20081;-74
2022/03/09 07:03:36;;;;;;;15.25;6.65;;;;;;;9.94;34.28;99465.59;5033987;28;20033;-73
2022/03/09 07:06:01;;;;;;;13.80;7.05;;;;;;;10.80;33.37;99466.88;5031695;28;20025;-71
2022/03/09 07:08:28;;;;;;;10.98;6.43;;;;;;;11.82;31.53;99455.88;5018777;28;20057;-75
2022/03/09 07:10:53;;;;;;;12.60;6.70;;;;;;;11.78;31.95;99453.75;5025492;28;20017;-74
2022/03/09 07:13:18;;;;;;;12.23;7.00;;;;;;;11.81;31.08;99456.06;5032219;28;20025;-75
2022/03/09 07:15:43;;;;;;;12.68;6.72;;;;;;;12.12;30.17;99466.59;5027919;28;20022;-76
2022/03/09 07:18:09;;;;;;;13.15;6.57;;;;;;;12.38;29.84;99465.09;5014008;28;20144;-77
2022/03/09 07:20:34;;;;;;;12.15;6.43;;;;;;;12.93;28.82;99458.72;5022494;28;20025;-75
2022/03/09 07:22:59;;;;;;;13.68;5.97;;;;;;;14.06;28.00;99471.72;5015536;28;20028;-73
2022/03/09 07:25:25;;;;;;;11.43;6.50;;;;;;;13.82;27.70;99463.13;5023528;28;20133;-73
2022/03/09 07:27:50;;;;;;;9.75;6.35;;;;;;;13.28;28.17;99472.25;5023151;28;20120;-74
2022/03/09 07:30:15;;;;;;;12.75;6.38;;;;;;;11.72;30.13;99492.50;5025317;28;20426;-74
2022/03/09 07:32:41;;;;;;;11.43;6.40;;;;;;;12.78;29.76;99471.59;5025277;28;20076;-74
2022/03/09 07:35:08;;;;;;;10.32;6.18;;;;;;;14.08;28.04;99476.97;5041611;28;20017;-70
2022/03/09 07:37:33;;;;;;;9.82;5.90;;;;;;;14.72;27.25;99483.59;5024314;28;20025;-70
2022/03/09 07:39:58;;;;;;;13.50;6.50;;;;;;;14.76;27.53;99474.78;5026573;28;20121;-76
2022/03/09 07:42:24;;;;;;;14.55;6.25;;;;;;;15.82;26.16;99475.34;5035935;28;20021;-73
2022/03/09 07:44:49;;;;;;;9.45;6.65;;;;;;;16.55;24.48;99470.06;5027858;28;20032;-75
2022/03/09 07:47:14;;;;;;;12.20;6.47;;;;;;;16.34;24.34;99467.75;5028586;28;20488;-76
2022/03/09 07:49:40;;;;;;;12.18;6.65;;;;;;;17.03;23.72;99479.47;5032804;28;20075;-74
2022/03/09 07:52:06;;;;;;;11.68;7.30;;;;;;;16.10;24.55;99473.00;5031543;28;20035;-75
2022/03/09 07:54:32;;;;;;;15.52;7.20;;;;;;;16.50;24.75;99483.56;5032753;28;20056;-75
2022/03/09 07:56:58;;;;;;;10.32;7.13;;;;;;;17.22;24.30;99492.03;5031419;28;20477;-75
2022/03/09 07:59:25;;;;;;;10.20;6.80;;;;;;;17.12;24.61;99478.09;5023103;28;20030;-76
2022/03/09 08:01:52;;;;;;;9.85;5.97;;;;;;;17.57;23.87;99476.84;5012808;28;20473;-73
2022/03/09 08:04:19;;;;;;;8.95;6.55;;;;;;;17.27;24.63;99492.19;5024657;28;20079;-76
2022/03/09 08:06:47;;;;;;;13.98;8.05;;;;;;;17.44;23.76;99486.06;5026322;28;20025;-74
2022/03/09 08:09:12;;;;;;;9.85;6.15;;;;;;;16.52;24.57;99477.88;5028642;28;20499;-75
2022/03/09 08:11:38;;;;;;;17.15;7.75;;;;;;;18.67;22.57;99478.22;5022680;28;20022;-73
2022/03/09 08:14:03;;;;;;;9.32;6.55;;;;;;;17.86;23.01;99484.22;5025492;28;20104;-72
2022/03/09 08:16:28;;;;;;;8.38;6.07;;;;;;;18.48;22.07;99489.31;5022951;28;20033;-74
2022/03/09 08:18:54;;;;;;;8.98;5.18;;;;;;;17.97;22.31;99485.31;5023719;28;20025;-75
2022/03/09 08:21:19;;;;;;;9.85;5.90;;;;;;;17.67;22.64;99463.44;5028909;28;20474;-76
2022/03/09 08:23:44;;;;;;;9.85;5.75;;;;;;;16.83;23.27;99468.75;5032430;28;20029;-76
2022/03/09 08:26:10;;;;;;;10.75;5.85;;;;;;;17.14;23.35;99470.50;5030517;28;20025;-74
2022/03/09 08:28:35;;;;;;;11.35;6.43;;;;;;;18.04;22.28;99472.34;5036970;28;20641;-75
2022/03/09 08:31:00;;;;;;;11.55;7.25;;;;;;;16.09;24.64;99467.78;5033538;28;20027;-78
2022/03/09 08:33:25;;;;;;;8.70;6.22;;;;;;;17.25;23.03;99471.59;5028652;28;20404;-74
2022/03/09 08:35:52;;;;;;;10.77;6.05;;;;;;;18.07;22.21;99477.38;5031911;28;20468;-73
2022/03/09 08:38:18;;;;;;;11.40;5.35;;;;;;;17.65;21.93;99469.13;5029973;28;20025;-71
2022/03/09 08:40:43;;;;;;;8.65;5.70;;;;;;;17.10;22.45;99452.84;5035198;28;20025;-76
2022/03/09 08:43:08;;;;;;;11.30;5.63;;;;;;;16.62;23.34;99475.47;5029282;28;20030;-72
2022/03/09 08:45:34;;;;;;;13.82;6.18;;;;;;;15.66;24.06;99461.13;5021977;28;20021;-75
2022/03/09 08:47:59;;;;;;;10.15;6.40;;;;;;;15.70;24.65;99454.22;5029315;28;20151;-74
2022/03/09 08:50:26;;;;;;;12.38;6.50;;;;;;;15.83;24.69;99444.28;5032386;28;20030;-74
2022/03/09 08:52:51;;;;;;;11.55;6.55;;;;;;;16.03;23.99;99444.94;5031435;28;20129;-73
2022/03/09 08:55:16;;;;;;;11.70;6.05;;;;;;;17.03;23.88;99461.16;5030478;28;20028;-74
2022/03/09 08:57:42;;;;;;;12.50;6.43;;;;;;;16.71;23.39;99451.41;5030424;28;20662;-73
2022/03/09 09:00:07;;;;;;;10.60;6.45;;;;;;;16.05;24.20;99470.13;5023714;28;20059;-73
2022/03/09 09:02:33;;;;;;;12.23;6.43;;;;;;;17.15;23.03;99436.59;5029002;28;20029;-70
2022/03/09 09:04:59;;;;;;;12.80;6.90;;;;;;;17.35;22.62;99449.19;5028710;28;20021;-71
2022/03/09 09:07:24;;;;;;;12.50;6.82;;;;;;;17.28;22.95;99462.94;5025893;28;20033;-72
2022/03/09 09:09:50;;;;;;;10.75;6.65;;;;;;;16.49;23.46;99464.69;5026478;28;20025;-72
2022/03/09 09:12:16;;;;;;;11.57;6.43;;;;;;;15.39;24.48;99473.28;5022964;28;20033;-71
2022/03/09 09:14:41;;;;;;;11.27;6.38;;;;;;;16.58;23.96;99472.38;5038782;28;20021;-71
2022/03/09 09:17:07;;;;;;;10.63;6.63;;;;;;;16.02;24.72;99473.28;5019698;28;20083;-72
2022/03/09 09:19:33;;;;;;;10.80;6.40;;;;;;;17.00;23.47;99456.16;5029132;28;20029;-72
2022/03/09 09:21:59;;;;;;;10.63;6.57;;;;;;;17.42;23.18;99469.06;5023789;28;20017;-74
2022/03/09 09:24:24;;;;;;;13.77;6.35;;;;;;;17.07;23.54;99467.81;5024894;28;20040;-73
2022/03/09 09:26:49;;;;;;;10.48;6.80;;;;;;;18.44;22.29;99457.97;5023747;28;20030;-76
2022/03/09 09:29:15;;;;;;;8.85;6.13;;;;;;;19.56;21.10;99453.19;5031813;28;20032;-77
2022/03/09 09:31:40;;;;;;;10.75;6.55;;;;;;;19.09;21.82;99456.94;5026143;28;20112;-71
2022/03/09 09:34:07;;;;;;;11.38;7.20;;;;;;;18.47;22.36;99453.91;5027409;28;20029;-71
2022/03/09 09:36:33;;;;;;;16.38;6.85;;;;;;;19.62;21.49;99444.81;5030121;28;20021;-73
2022/03/09 09:38:59;;;;;;;12.73;7.22;;;;;;;19.73;21.59;99458.75;5021444;28;20030;-72
2022/03/09 09:41:26;;;;;;;10.30;7.03;;;;;;;19.51;21.17;99453.94;5018965;28;20473;-75
2022/03/09 09:43:51;;;;;;;10.70;7.10;;;;;;;20.20;20.56;99440.06;5014559;28;20045;-75
2022/03/09 09:46:17;;;;;;;11.98;6.95;;;;;;;19.26;21.35;99460.59;5024741;28;20026;-75
2022/03/09 09:48:46;;;;;;;9.07;6.13;;;;;;;19.61;20.90;99450.56;5031510;28;20029;-75
2022/03/09 09:51:12;;;;;;;;;;;;;;;19.61;20.53;99456.88;5028080;28;20109;-75
2022/03/09 09:53:44;;;;;;;11.15;6.57;;;;;;;18.22;21.46;99465.97;5035818;28;19940;-76
2022/03/09 09:56:13;;;;;;;13.25;7.38;;;;;;;18.76;21.41;99454.91;5035685;28;20063;-76
2022/03/09 09:58:40;;;;;;;9.27;6.45;;;;;;;19.45;20.77;99453.00;5026906;28;20025;-75
2022/03/09 10:01:06;;;;;;;8.60;6.70;;;;;;;19.77;20.03;99463.50;5035256;28;20104;-75
2022/03/09 10:03:31;;;;;;;8.85;6.07;;;;;;;22.44;18.58;99453.94;5031827;28;20131;-73
2022/03/09 10:05:56;;;;;;;10.88;6.95;;;;;;;20.48;19.36;99452.81;5034949;28;20047;-76
2022/03/09 10:08:22;;;;;;;9.68;6.95;;;;;;;21.39;18.93;99459.84;5036837;28;20056;-75
2022/03/09 10:11:03;;;;;;;11.27;7.30;;;;;;;20.81;19.34;99439.31;5034613;28;20075;-74
2022/03/09 10:13:35;;;;;;;9.75;6.32;;;;;;;21.65;18.70;99448.00;5030167;28;20032;-75
2022/03/09 10:16:21;;;;;;;10.57;7.07;;;;;;;20.62;19.10;99447.00;5050151;28;20160;-76
2022/03/09 10:18:48;;;;;;;9.25;6.50;;;;;;;21.39;19.11;99454.34;5029257;28;20017;-76
2022/03/09 10:21:37;;;;;;;9.55;7.18;;;;;;;20.64;18.94;99458.59;5089767;23;20431;-67
2022/03/09 10:24:06;;;;;;;;;;;;;;;18.44;20.55;99470.84;5053316;28;20025;-68
2022/03/09 10:26:42;;;;;;;11.23;6.80;;;;;;;19.57;19.56;99460.34;5053524;28;19916;-68
2022/03/09 10:29:12;;;;;;;9.85;7.30;;;;;;;19.66;19.14;99461.63;5045677;28;20032;-68
2022/03/09 10:31:42;;;;;;;11.10;7.93;;;;;;;20.44;18.31;99459.09;5044758;28;20022;-69
2022/03/09 10:34:09;;;;;;;9.20;7.10;;;;;;;20.48;18.24;99458.31;5049465;28;20029;-68
2022/03/09 10:36:35;;;;;;;10.65;7.65;;;;;;;22.01;16.64;99456.63;5041415;28;20034;-68
2022/03/09 10:39:15;;;;;;;10.13;7.43;;;;;;;20.88;17.86;99462.78;5040120;28;20136;-68
2022/03/09 10:41:41;;;;;;;8.13;7.05;;;;;;;21.21;18.04;99452.72;5039464;28;20541;-68
2022/03/09 10:44:07;;;;;;;10.10;8.13;;;;;;;21.58;16.77;99449.31;5046569;28;20071;-68
2022/03/09 10:46:44;;;;;;;10.40;7.78;;;;;;;22.12;15.53;99452.00;5048570;28;20110;-68
2022/03/09 10:49:12;;;;;;;12.15;8.85;;;;;;;20.25;17.11;99444.78;5051860;28;20033;-68
2022/03/09 10:51:43;;;;;;;11.25;8.68;;;;;;;21.45;16.27;99464.31;5051434;28;20533;-68
2022/03/09 10:54:09;;;;;;;11.57;8.52;;;;;;;21.87;16.89;99466.38;5034851;28;20391;-68
2022/03/09 10:56:36;;;;;;;9.48;7.90;;;;;;;21.02;17.64;99444.81;5051496;28;20061;-68
2022/03/09 10:59:28;;;;;;;10.45;8.13;;;;;;;21.17;17.43;99460.69;5033099;28;20146;-66
2022/03/09 11:02:07;;;;;;;12.63;8.10;;;;;;;21.05;17.49;99453.63;5048148;28;20492;-67
2022/03/09 11:04:33;;;;;;;10.10;7.68;;;;;;;23.86;16.54;99452.88;5041999;28;20193;-67
2022/03/09 11:06:58;;;;;;;9.07;7.47;;;;;;;21.95;18.44;99445.78;5049464;28;20206;-67
2022/03/09 11:09:24;;;;;;;12.65;8.20;;;;;;;22.56;18.00;99453.72;5049944;28;20476;-67
2022/03/09 11:11:50;;;;;;;12.35;8.05;;;;;;;21.25;18.89;99453.88;5048257;28;20028;-67
2022/03/09 11:14:17;;;;;;;10.60;7.90;;;;;;;22.40;18.46;99450.03;5045594;28;20487;-68
2022/03/09 11:16:43;;;;;;;10.00;8.18;;;;;;;22.22;18.55;99459.56;5047465;28;20506;-67
2022/03/09 11:19:13;;;;;;;12.50;7.38;;;;;;;23.14;16.77;99449.09;5044082;28;20418;-68
2022/03/09 11:21:39;;;;;;;11.15;7.53;;;;;;;22.36;18.10;99451.66;5038530;28;20475;-67
2022/03/09 11:24:11;;;;;;;14.88;7.53;;;;;;;22.60;17.63;99446.59;5042565;28;20028;-68